Terminal Aerodrome Forecast
Issued by NWS Bismarck, ND

Home | Current Version | Previous Version | Graphics & Text | Print | Product List | Glossary On
Versions: 1 2 3 4 5 6 7 8 9 10 11 12 13 14 15 16 17 18 19 20 21 22 23 24 25 26 27
000
FTUS43 KBIS 041742
TAFBIS
TAF
KBIS 041742Z 0418/0518 05006KT P6SM VCSH OVC010
     FM042000 04008KT P6SM SCT030
     FM050200 06007KT P6SM SCT070
      TEMPO 0511/0513 4SM BR OVC010
     FM051300 06006KT P6SM OVC015=

USA.gov is the U.S. government's official web portal to all federal, state and local government web resources and services.